Time;durP1;ratioP1;P1;durP2;ratioP2;P2;SDS_P1;SDS_P2;PMS_P1;PMS_P2;Temp;Humidity;BMP_temperature;BMP_pressure;BME280_temperature;BME280_humidity;BME280_pressure;Samples;Min_cycle;Max_cycle;Signal;HPM_P1;HPM_P2
2021/08/23 00:00:57;;;;;;;4.93;3.57;;;;;;;17.35;72.42;97053.47;5070799;28;20254;-69
2021/08/23 00:03:23;;;;;;;7.87;4.20;;;;;;;17.17;72.73;97047.88;5062139;28;20557;-68
2021/08/23 00:05:48;;;;;;;7.00;4.30;;;;;;;17.55;71.50;97043.94;5070856;28;20448;-69
2021/08/23 00:08:15;;;;;;;5.50;3.50;;;;;;;17.87;70.64;97058.25;5071494;28;20205;-68
2021/08/23 00:10:40;;;;;;;14.93;4.10;;;;;;;17.61;70.94;97051.91;5069521;28;20174;-68
2021/08/23 00:13:06;;;;;;;5.80;3.67;;;;;;;17.77;70.79;97048.03;5071664;28;20435;-69
2021/08/23 00:15:31;;;;;;;4.83;3.67;;;;;;;17.56;71.43;97046.38;5062944;28;20182;-69
2021/08/23 00:17:57;;;;;;;4.10;3.70;;;;;;;17.62;71.06;97053.53;5071741;28;20210;-68
2021/08/23 00:20:31;;;;;;;5.07;3.67;;;;;;;17.65;70.73;97047.00;5063095;28;20224;-67
2021/08/23 00:22:57;;;;;;;7.63;4.20;;;;;;;17.57;71.16;97048.00;5070444;28;20229;-68
2021/08/23 00:25:22;;;;;;;5.13;3.50;;;;;;;17.80;70.23;97046.81;5061719;28;20475;-68
2021/08/23 00:27:48;;;;;;;6.00;4.70;;;;;;;17.39;71.60;97039.84;5070932;28;20701;-69
2021/08/23 00:30:15;;;;;;;5.40;3.50;;;;;;;17.10;72.93;97047.06;5069714;28;20247;-68
2021/08/23 00:32:42;;;;;;;6.93;3.60;;;;;;;17.64;70.96;97034.78;5062262;28;20182;-69
2021/08/23 00:35:08;;;;;;;7.23;3.40;;;;;;;17.60;70.69;97037.00;5064528;28;20436;-69
2021/08/23 00:37:33;;;;;;;6.00;3.80;;;;;;;17.33;71.56;97041.41;5071177;28;20456;-67
2021/08/23 00:40:01;;;;;;;5.67;3.80;;;;;;;17.63;71.05;97043.75;5071129;28;20424;-67
2021/08/23 00:42:26;;;;;;;3.60;3.27;;;;;;;17.52;70.93;97037.19;5071162;28;20194;-66
2021/08/23 00:44:52;;;;;;;5.80;3.60;;;;;;;17.61;70.50;97041.31;5061241;28;20956;-67
2021/08/23 00:47:18;;;;;;;4.70;3.70;;;;;;;18.01;69.34;97042.38;5070577;28;20257;-66
2021/08/23 00:49:44;;;;;;;5.20;3.50;;;;;;;17.98;69.47;97040.94;5070995;28;20507;-67
2021/08/23 00:52:10;;;;;;;4.13;3.73;;;;;;;18.04;69.09;97031.34;5071064;28;20185;-67
2021/08/23 00:54:37;;;;;;;5.20;4.03;;;;;;;18.20;68.49;97033.59;5071626;28;20192;-66
2021/08/23 00:57:06;;;;;;;5.93;3.73;;;;;;;18.24;68.06;97034.84;5069297;28;20193;-67
2021/08/23 00:59:37;;;;;;;6.37;3.63;;;;;;;18.32;68.27;97036.47;5070871;28;20421;-67
2021/08/23 01:02:22;;;;;;;3.70;3.13;;;;;;;18.40;67.96;97036.22;5069634;28;20458;-67
2021/08/23 01:05:05;;;;;;;3.50;2.97;;;;;;;18.39;67.84;97037.25;5058890;28;20440;-69
2021/08/23 01:07:54;;;;;;;5.13;3.83;;;;;;;18.40;67.79;97046.00;5054230;28;20472;-68
2021/08/23 01:10:31;;;;;;;4.40;3.10;;;;;;;18.37;68.18;97043.78;5058899;28;20529;-67
2021/08/23 01:12:57;;;;;;;3.80;3.10;;;;;;;18.31;68.39;97036.66;5069357;28;20421;-69
2021/08/23 01:15:23;;;;;;;6.53;3.33;;;;;;;18.38;68.27;97040.94;5069964;28;20551;-69
2021/08/23 01:17:50;;;;;;;5.33;3.93;;;;;;;18.23;68.71;97043.81;5069250;28;20472;-70
2021/08/23 01:20:16;;;;;;;7.30;3.30;;;;;;;18.25;68.89;97047.06;5061661;28;20304;-69
2021/08/23 01:22:46;;;;;;;3.50;3.10;;;;;;;18.15;69.07;97040.53;5068645;28;20452;-69
2021/08/23 01:25:14;;;;;;;6.63;3.40;;;;;;;17.53;71.58;97040.66;5068488;28;20174;-69
2021/08/23 01:27:59;;;;;;;5.60;3.50;;;;;;;17.47;71.87;97035.13;5069125;28;20544;-68
2021/08/23 01:30:27;;;;;;;5.10;3.43;;;;;;;16.99;73.61;97038.69;5070877;28;20433;-68
2021/08/23 01:32:53;;;;;;;5.37;3.30;;;;;;;17.16;73.33;97033.84;5046738;28;20429;-68
2021/08/23 01:35:19;;;;;;;5.03;3.47;;;;;;;17.01;73.62;97041.13;5065562;28;20442;-68
2021/08/23 01:37:44;;;;;;;4.17;3.43;;;;;;;17.28;72.38;97036.72;5069967;28;20271;-69
2021/08/23 01:40:10;;;;;;;4.63;3.03;;;;;;;17.58;71.23;97040.91;5068408;28;20182;-70
2021/08/23 01:42:36;;;;;;;3.30;3.00;;;;;;;17.68;70.38;97043.13;5069774;28;20214;-68
2021/08/23 01:45:02;;;;;;;4.17;3.37;;;;;;;17.46;71.30;97038.00;5068438;28;20783;-69
2021/08/23 01:47:27;;;;;;;10.23;3.63;;;;;;;17.91;70.10;97042.75;5061859;28;20594;-69
2021/08/23 01:49:53;;;;;;;7.10;3.27;;;;;;;17.37;72.31;97039.22;5070368;28;20483;-69
2021/08/23 01:52:18;;;;;;;5.10;2.73;;;;;;;17.68;70.90;97040.47;5070299;28;20187;-69
2021/08/23 01:54:44;;;;;;;3.10;2.70;;;;;;;17.73;70.30;97046.00;5069962;28;20680;-68
2021/08/23 01:57:15;;;;;;;3.20;2.90;;;;;;;17.71;70.95;97045.38;5068549;28;20175;-68
2021/08/23 01:59:41;;;;;;;4.43;3.30;;;;;;;18.08;69.20;97044.00;5020042;28;20428;-69
2021/08/23 02:02:07;;;;;;;4.00;3.27;;;;;;;17.95;69.27;97036.84;5068494;28;20431;-69
2021/08/23 02:04:33;;;;;;;6.53;2.83;;;;;;;17.63;70.61;97044.56;5059585;28;20257;-67
2021/08/23 02:06:58;;;;;;;4.20;3.40;;;;;;;18.03;69.51;97046.47;5070340;28;20416;-69
2021/08/23 02:09:24;;;;;;;3.53;3.17;;;;;;;17.88;70.13;97045.81;5074298;28;20549;-68
2021/08/23 02:11:49;;;;;;;3.47;3.00;;;;;;;17.85;69.93;97041.72;5074369;28;20182;-69
2021/08/23 02:14:15;;;;;;;4.57;3.20;;;;;;;18.08;69.46;97046.66;5073396;28;20426;-69
2021/08/23 02:16:41;;;;;;;5.17;2.83;;;;;;;18.20;68.56;97038.09;5074042;28;20171;-69
2021/08/23 02:19:07;;;;;;;6.90;3.13;;;;;;;18.36;68.13;97035.00;5063808;28;20240;-69
2021/08/23 02:21:47;;;;;;;8.23;2.70;;;;;;;18.42;68.00;97036.84;5074212;28;20174;-69
2021/08/23 02:24:13;;;;;;;5.50;3.30;;;;;;;18.46;67.32;97042.56;5071975;28;20483;-69
2021/08/23 02:26:38;;;;;;;6.47;3.03;;;;;;;18.45;67.35;97035.63;5072669;28;20855;-69
2021/08/23 02:29:04;;;;;;;3.03;2.80;;;;;;;18.51;67.49;97036.63;5073721;28;20700;-69
2021/08/23 02:31:29;;;;;;;6.73;3.17;;;;;;;18.42;67.42;97033.38;5072915;28;20200;-69
2021/08/23 02:33:55;;;;;;;5.77;3.23;;;;;;;18.39;67.65;97034.59;5063974;28;20250;-69
2021/08/23 02:36:21;;;;;;;4.60;2.87;;;;;;;18.43;67.59;97032.34;5071999;28;20187;-69
2021/08/23 02:38:49;;;;;;;3.83;3.37;;;;;;;18.48;67.66;97035.22;5072348;28;20210;-68
2021/08/23 02:41:15;;;;;;;4.20;3.30;;;;;;;18.49;67.79;97030.69;5065566;28;20900;-68
2021/08/23 02:43:42;;;;;;;3.30;3.00;;;;;;;18.47;68.08;97030.91;5073323;28;20452;-68
2021/08/23 02:46:07;;;;;;;7.17;3.20;;;;;;;18.50;68.05;97035.00;5073590;28;20926;-70
2021/08/23 02:48:33;;;;;;;3.90;3.10;;;;;;;18.42;68.23;97031.53;5069753;28;20437;-68
2021/08/23 02:50:59;;;;;;;3.53;3.03;;;;;;;18.26;68.82;97031.97;5069301;28;20175;-70
2021/08/23 02:53:25;;;;;;;7.20;3.00;;;;;;;18.26;68.70;97031.97;5072266;28;20507;-68
2021/08/23 02:55:51;;;;;;;4.90;3.53;;;;;;;18.30;68.90;97035.84;5073216;28;20174;-70
2021/08/23 02:58:16;;;;;;;6.47;3.20;;;;;;;18.33;68.95;97045.22;5073650;28;20716;-69
2021/08/23 03:00:42;;;;;;;4.50;3.30;;;;;;;18.23;69.60;97043.81;5073949;28;20419;-68
2021/08/23 03:03:07;;;;;;;6.40;3.33;;;;;;;17.49;72.54;97037.59;5065004;28;20284;-68
2021/08/23 03:05:33;;;;;;;4.97;3.20;;;;;;;17.76;71.47;97043.75;5084227;28;20182;-68
2021/08/23 03:07:59;;;;;;;4.13;2.83;;;;;;;17.96;70.76;97041.13;5079141;28;20195;-70
2021/08/23 03:10:24;;;;;;;7.23;2.90;;;;;;;17.65;71.77;97033.75;5080758;28;20190;-68
2021/08/23 03:12:50;;;;;;;6.10;3.47;;;;;;;17.23;73.03;97028.56;5080270;28;20605;-69
2021/08/23 03:15:15;;;;;;;4.67;3.17;;;;;;;17.22;73.47;97024.28;5075975;28;20269;-69
2021/08/23 03:17:41;;;;;;;4.63;3.10;;;;;;;17.45;72.20;97031.88;5080419;28;20198;-69
2021/08/23 03:20:07;;;;;;;4.00;3.57;;;;;;;17.75;71.19;97036.03;5078702;28;20253;-68
2021/08/23 03:22:33;;;;;;;4.00;3.10;;;;;;;17.50;72.27;97033.94;5039736;28;20220;-66
2021/08/23 03:24:58;;;;;;;6.03;3.47;;;;;;;17.46;72.39;97032.69;5048038;28;20203;-69
2021/08/23 03:27:24;;;;;;;6.53;3.53;;;;;;;17.53;72.14;97038.00;5061436;28;20210;-69
2021/08/23 03:29:51;;;;;;;4.23;3.20;;;;;;;17.92;70.74;97042.53;5051146;28;20554;-70
2021/08/23 03:32:17;;;;;;;5.47;3.17;;;;;;;17.90;70.06;97031.31;5054019;28;20510;-69
2021/08/23 03:34:43;;;;;;;4.43;3.20;;;;;;;18.10;69.67;97034.00;5057885;28;20425;-69
2021/08/23 03:37:09;;;;;;;3.20;2.90;;;;;;;18.15;69.04;97030.75;5051755;28;20429;-69
2021/08/23 03:39:34;;;;;;;7.50;3.70;;;;;;;18.14;69.00;97038.91;5051400;28;20167;-70
2021/08/23 03:42:00;;;;;;;5.20;3.20;;;;;;;18.07;69.11;97045.03;5051278;28;20266;-68
2021/08/23 03:44:26;;;;;;;7.20;3.10;;;;;;;18.10;68.87;97046.47;5050593;28;20225;-68
2021/08/23 03:46:54;;;;;;;4.47;3.00;;;;;;;18.10;68.99;97038.50;5057807;28;20179;-69
2021/08/23 03:49:20;;;;;;;5.73;3.10;;;;;;;18.05;69.25;97036.47;5061342;28;20260;-68
2021/08/23 03:51:46;;;;;;;5.97;2.90;;;;;;;18.04;69.37;97036.66;5051684;28;20504;-68
2021/08/23 03:54:12;;;;;;;5.33;3.03;;;;;;;18.04;69.43;97036.66;5043649;28;20852;-68
2021/08/23 03:56:38;;;;;;;3.00;2.70;;;;;;;18.30;68.75;97037.66;5055838;28;20653;-68
2021/08/23 03:59:03;;;;;;;3.97;3.00;;;;;;;17.95;69.57;97039.50;5050611;28;20199;-71
2021/08/23 04:01:29;;;;;;;6.00;3.07;;;;;;;17.90;69.91;97041.91;5051863;28;20201;-69
2021/08/23 04:03:54;;;;;;;4.83;3.23;;;;;;;17.76;70.44;97049.06;5049945;28;20211;-67
2021/08/23 04:06:20;;;;;;;5.00;2.60;;;;;;;18.09;69.04;97036.88;5051611;28;20270;-69
2021/08/23 04:08:46;;;;;;;4.70;3.27;;;;;;;18.17;68.69;97041.97;5051715;28;20199;-68
2021/08/23 04:11:13;;;;;;;3.63;3.30;;;;;;;17.78;69.76;97040.91;5052405;28;20175;-68
2021/08/23 04:13:39;;;;;;;5.57;3.57;;;;;;;17.41;71.67;97041.25;5058393;28;20175;-69
2021/08/23 04:16:05;;;;;;;3.63;2.77;;;;;;;17.68;70.74;97036.00;5051819;28;20471;-68
2021/08/23 04:18:30;;;;;;;4.27;3.87;;;;;;;17.58;70.24;97039.03;5046496;28;20941;-69
2021/08/23 04:20:56;;;;;;;4.80;3.27;;;;;;;17.93;69.53;97032.78;5047163;28;20257;-69
2021/08/23 04:23:22;;;;;;;3.60;3.03;;;;;;;17.77;69.83;97047.22;5043089;28;20679;-68
2021/08/23 04:25:47;;;;;;;4.87;3.40;;;;;;;17.78;69.46;97048.84;5051515;28;20183;-68
2021/08/23 04:28:13;;;;;;;3.40;2.70;;;;;;;17.70;70.39;97041.09;5050225;28;20199;-70
2021/08/23 04:30:38;;;;;;;7.03;2.97;;;;;;;17.40;71.29;97046.72;5050860;28;20236;-68
2021/08/23 04:33:04;;;;;;;3.73;3.00;;;;;;;17.37;71.09;97052.44;5051082;28;20250;-69
2021/08/23 04:35:30;;;;;;;5.57;3.20;;;;;;;17.23;72.14;97043.63;5049284;28;20646;-69
2021/08/23 04:37:55;;;;;;;7.83;3.27;;;;;;;17.65;70.23;97050.47;5049607;28;20203;-68
2021/08/23 04:40:21;;;;;;;4.87;3.30;;;;;;;17.64;70.32;97053.31;5050082;28;20260;-68
2021/08/23 04:42:46;;;;;;;3.30;3.00;;;;;;;17.88;69.27;97057.25;5051482;28;20199;-68
2021/08/23 04:45:12;;;;;;;4.23;3.23;;;;;;;17.79;69.77;97063.72;5050232;28;20237;-69
2021/08/23 04:47:37;;;;;;;3.77;3.27;;;;;;;17.89;69.56;97063.34;5050129;28;20658;-68
2021/08/23 04:50:03;;;;;;;6.23;2.77;;;;;;;17.76;69.92;97064.16;5059197;28;20183;-68
2021/08/23 04:52:29;;;;;;;5.40;3.10;;;;;;;17.84;69.63;97066.59;5041594;28;20572;-68
2021/08/23 04:54:59;;;;;;;6.90;3.10;;;;;;;17.99;69.32;97073.59;5045681;28;20504;-69
2021/08/23 04:57:25;;;;;;;6.90;3.00;;;;;;;18.02;69.66;97078.50;5049029;28;20298;-69
2021/08/23 04:59:50;;;;;;;3.90;2.60;;;;;;;17.95;69.85;97073.97;5049881;28;20501;-68
2021/08/23 05:02:16;;;;;;;4.13;3.10;;;;;;;17.74;70.52;97074.13;5050346;28;20253;-68
2021/08/23 05:04:41;;;;;;;4.60;2.70;;;;;;;17.91;70.32;97067.41;5049281;28;20175;-69
2021/08/23 05:07:07;;;;;;;6.27;3.00;;;;;;;18.14;69.85;97076.03;5058831;28;20261;-69
2021/08/23 05:09:32;;;;;;;4.23;3.20;;;;;;;17.53;72.40;97069.81;5050891;28;20191;-68
2021/08/23 05:11:58;;;;;;;5.73;3.23;;;;;;;17.54;73.06;97072.25;5050932;28;20179;-68
2021/08/23 05:14:23;;;;;;;7.37;3.13;;;;;;;17.89;71.46;97071.28;5050010;28;20697;-69
2021/08/23 05:16:49;;;;;;;4.40;3.10;;;;;;;17.41;73.15;97066.91;5049624;28;20183;-69
2021/08/23 05:19:15;;;;;;;8.30;3.20;;;;;;;17.50;73.38;97060.44;5048854;28;20199;-68
2021/08/23 05:21:40;;;;;;;10.10;3.60;;;;;;;17.90;71.68;97065.78;5050255;28;20182;-69
2021/08/23 05:24:06;;;;;;;5.20;3.10;;;;;;;18.13;70.70;97064.63;5044903;28;20692;-70
2021/08/23 05:26:32;;;;;;;5.00;3.50;;;;;;;17.93;71.36;97060.09;5049926;28;20183;-67
2021/08/23 05:28:58;;;;;;;7.63;3.20;;;;;;;17.59;72.76;97064.53;5050103;28;20207;-68
2021/08/23 05:31:25;;;;;;;6.07;3.40;;;;;;;17.73;72.50;97070.66;5057755;28;20436;-67
2021/08/23 05:33:50;;;;;;;9.47;3.50;;;;;;;18.01;71.45;97067.06;5069870;28;20202;-69
2021/08/23 05:36:16;;;;;;;7.73;3.30;;;;;;;17.94;71.50;97074.16;5066132;28;20424;-67
2021/08/23 05:38:42;;;;;;;3.50;3.20;;;;;;;17.81;71.69;97072.31;5057886;28;20214;-67
2021/08/23 05:41:07;;;;;;;4.27;3.03;;;;;;;17.45;72.71;97078.75;5069695;28;20178;-68
2021/08/23 05:43:33;;;;;;;4.90;3.33;;;;;;;17.70;72.51;97067.59;5057523;28;20626;-68
2021/08/23 05:46:00;;;;;;;6.83;3.63;;;;;;;18.11;71.24;97075.41;5074261;28;20262;-68
2021/08/23 05:48:27;;;;;;;4.57;3.37;;;;;;;17.79;71.76;97079.63;5074481;28;20251;-67
2021/08/23 05:50:52;;;;;;;8.87;3.80;;;;;;;18.28;70.39;97077.66;5069641;28;20435;-68
2021/08/23 05:53:18;;;;;;;10.03;5.63;;;;;;;18.14;70.91;97068.91;5073263;28;20420;-70
2021/08/23 05:55:43;;;;;;;4.77;3.27;;;;;;;18.23;70.33;97078.28;5073113;28;20189;-68
2021/08/23 05:58:09;;;;;;;8.83;5.40;;;;;;;18.52;69.45;97070.94;5074951;28;20737;-67
2021/08/23 06:00:34;;;;;;;17.17;5.43;;;;;;;18.67;69.27;97075.16;5071389;28;20174;-68
2021/08/23 06:03:00;;;;;;;13.13;5.70;;;;;;;18.42;70.42;97073.16;5074605;28;20201;-70
2021/08/23 06:05:25;;;;;;;5.47;3.60;;;;;;;18.50;70.19;97067.66;5071395;28;20186;-68
2021/08/23 06:07:51;;;;;;;9.43;3.60;;;;;;;18.36;70.08;97072.16;5074110;28;20221;-68
2021/08/23 06:10:17;;;;;;;7.37;3.63;;;;;;;18.25;70.80;97063.00;5073949;28;20186;-69
2021/08/23 06:12:42;;;;;;;8.50;3.07;;;;;;;18.33;70.16;97069.09;5074027;28;20540;-67
2021/08/23 06:15:08;;;;;;;5.40;3.53;;;;;;;18.80;69.17;97074.34;5073005;28;20189;-68
2021/08/23 06:17:34;;;;;;;4.80;3.47;;;;;;;18.96;68.84;97073.09;5074596;28;20229;-68
2021/08/23 06:19:59;;;;;;;6.50;3.80;;;;;;;18.88;69.02;97072.28;5057352;28;20445;-68
2021/08/23 06:22:25;;;;;;;4.20;3.80;;;;;;;18.64;69.68;97075.59;5071869;28;20183;-68
2021/08/23 06:24:51;;;;;;;5.33;3.97;;;;;;;18.82;69.23;97073.09;5045846;28;20184;-69
2021/08/23 06:27:18;;;;;;;5.10;3.60;;;;;;;18.64;68.43;97072.94;5071031;28;20190;-67
2021/08/23 06:29:43;;;;;;;5.10;3.00;;;;;;;18.60;69.81;97074.38;5073608;28;20413;-69
2021/08/23 06:32:09;;;;;;;6.43;3.80;;;;;;;18.70;69.38;97066.78;5069730;28;20477;-69
2021/08/23 06:34:34;;;;;;;5.20;3.47;;;;;;;18.85;68.08;97078.00;5071636;28;20505;-69
2021/08/23 06:37:00;;;;;;;5.20;3.20;;;;;;;18.87;67.87;97075.94;5073066;28;20273;-69
2021/08/23 06:39:26;;;;;;;3.70;3.37;;;;;;;19.22;66.56;97072.16;5072861;28;20281;-67
2021/08/23 06:41:51;;;;;;;4.50;2.97;;;;;;;19.15;66.61;97072.19;5071998;28;20275;-70
2021/08/23 06:44:17;;;;;;;6.33;3.60;;;;;;;19.47;66.35;97069.59;5071102;28;20579;-69
2021/08/23 06:46:42;;;;;;;4.63;2.83;;;;;;;19.56;65.48;97072.00;5073191;28;20178;-71
2021/08/23 06:49:08;;;;;;;6.80;3.13;;;;;;;19.82;64.61;97064.91;5071326;28;20194;-69
2021/08/23 06:51:33;;;;;;;7.70;3.60;;;;;;;18.90;67.23;97073.91;5072352;28;20650;-67
2021/08/23 06:54:00;;;;;;;5.57;2.90;;;;;;;19.03;66.82;97076.53;5071829;28;20190;-68
2021/08/23 06:56:27;;;;;;;4.90;3.17;;;;;;;19.22;66.33;97069.50;5071639;28;20174;-69
2021/08/23 06:58:53;;;;;;;10.97;2.97;;;;;;;19.59;65.77;97072.41;5072606;28;20491;-69
2021/08/23 07:01:19;;;;;;;10.80;3.83;;;;;;;19.77;65.10;97071.69;5065033;28;20460;-67
2021/08/23 07:03:46;;;;;;;5.80;3.00;;;;;;;19.08;67.31;97068.75;5065674;28;20484;-67
2021/08/23 07:06:12;;;;;;;8.97;3.33;;;;;;;19.66;65.74;97075.00;5072484;28;20178;-69
2021/08/23 07:08:38;;;;;;;7.07;3.40;;;;;;;19.89;63.59;97065.72;5071040;28;20866;-69
2021/08/23 07:11:04;;;;;;;6.57;3.67;;;;;;;19.37;65.61;97073.75;5071833;28;20424;-69
2021/08/23 07:13:29;;;;;;;6.90;3.83;;;;;;;19.92;64.76;97075.91;5070887;28;20185;-69
2021/08/23 07:15:56;;;;;;;6.60;3.10;;;;;;;19.39;65.31;97075.19;5072814;28;20303;-67
2021/08/23 07:18:29;;;;;;;5.97;5.07;;;;;;;19.91;65.58;97076.97;5069717;28;20296;-67
2021/08/23 07:20:54;;;;;;;5.77;2.90;;;;;;;20.26;63.65;97079.16;5050222;28;20448;-69
2021/08/23 07:23:20;;;;;;;4.20;3.00;;;;;;;20.14;63.76;97088.84;5071932;28;20464;-69
2021/08/23 07:25:46;;;;;;;4.27;3.40;;;;;;;20.14;63.45;97083.53;5072588;28;20237;-67
2021/08/23 07:28:13;;;;;;;4.97;2.90;;;;;;;20.02;63.39;97086.91;5071464;28;20198;-70
2021/08/23 07:30:40;;;;;;;9.60;3.30;;;;;;;20.21;63.40;97084.28;5069329;28;20183;-67
2021/08/23 07:33:05;;;;;;;4.97;3.20;;;;;;;19.97;64.31;97084.06;5072327;28;20466;-69
2021/08/23 07:35:31;;;;;;;5.70;2.90;;;;;;;19.79;63.68;97080.25;5071923;28;20425;-68
2021/08/23 07:37:56;;;;;;;5.27;3.00;;;;;;;19.93;63.02;97080.19;5071506;28;20241;-72
2021/08/23 07:40:22;;;;;;;4.33;3.10;;;;;;;20.30;63.46;97080.31;5071774;28;20210;-70
2021/08/23 07:42:48;;;;;;;6.10;3.37;;;;;;;20.41;62.40;97073.47;5064498;28;20616;-70
2021/08/23 07:45:14;;;;;;;7.83;3.60;;;;;;;20.49;62.66;97073.19;5071747;28;20182;-68
2021/08/23 07:47:42;;;;;;;5.93;2.97;;;;;;;21.00;60.29;97068.63;5072043;28;20692;-69
2021/08/23 07:50:08;;;;;;;4.70;3.40;;;;;;;20.62;61.02;97080.25;5071941;28;20452;-67
2021/08/23 07:52:34;;;;;;;5.87;3.60;;;;;;;19.91;62.78;97076.97;5071328;28;20568;-67
2021/08/23 07:54:59;;;;;;;6.07;3.13;;;;;;;20.62;60.69;97085.56;5071656;28;20420;-68
2021/08/23 07:57:25;;;;;;;3.73;2.73;;;;;;;20.99;60.24;97076.81;5071776;28;20231;-68
2021/08/23 07:59:50;;;;;;;6.23;5.20;;;;;;;20.68;60.82;97074.03;5071548;28;20178;-70
2021/08/23 08:02:16;;;;;;;3.23;2.87;;;;;;;20.28;61.36;97074.41;5068869;28;20205;-69
2021/08/23 08:04:41;;;;;;;7.23;3.43;;;;;;;19.84;62.54;97078.78;5071284;28;20185;-70
2021/08/23 08:07:07;;;;;;;7.73;3.60;;;;;;;20.07;61.89;97083.59;5069337;28;20182;-68
2021/08/23 08:09:33;;;;;;;8.70;3.30;;;;;;;20.45;60.73;97079.16;5070495;28;20182;-69
2021/08/23 08:11:58;;;;;;;3.07;2.87;;;;;;;19.91;61.69;97082.28;5070323;28;20792;-68
2021/08/23 08:14:24;;;;;;;3.90;3.00;;;;;;;20.29;60.54;97083.22;5070580;28;20651;-68
2021/08/23 08:16:49;;;;;;;7.80;3.00;;;;;;;20.86;59.67;97085.78;5071360;28;20182;-70
2021/08/23 08:19:15;;;;;;;3.93;2.73;;;;;;;21.37;58.46;97080.28;5045143;28;20329;-69
2021/08/23 08:21:41;;;;;;;9.30;2.87;;;;;;;21.57;56.62;97080.00;5071295;28;20182;-68
2021/08/23 08:24:06;;;;;;;7.70;3.33;;;;;;;21.82;55.81;97082.53;5070093;28;20328;-68
2021/08/23 08:26:32;;;;;;;5.20;2.43;;;;;;;22.17;55.57;97087.16;5071238;28;20182;-69
2021/08/23 08:28:58;;;;;;;5.23;2.60;;;;;;;22.33;54.73;97083.00;5071395;28;20210;-69
2021/08/23 08:31:23;;;;;;;5.60;3.00;;;;;;;22.74;54.25;97085.00;5067560;28;20674;-68
2021/08/23 08:33:49;;;;;;;7.77;2.97;;;;;;;22.50;53.77;97085.00;5070435;28;20689;-69
2021/08/23 08:36:15;;;;;;;3.77;2.53;;;;;;;22.52;53.36;97086.41;5066923;28;20247;-68
2021/08/23 08:38:41;;;;;;;10.87;3.10;;;;;;;21.07;57.22;97092.50;5057751;28;20247;-68
2021/08/23 08:41:07;;;;;;;4.97;2.37;;;;;;;21.82;55.60;97089.75;5071220;28;20593;-69
2021/08/23 08:43:33;;;;;;;5.80;3.10;;;;;;;21.32;56.59;97084.41;5069883;28;20456;-69
2021/08/23 08:45:58;;;;;;;3.67;2.27;;;;;;;20.92;57.13;97090.19;5070541;28;20474;-69
2021/08/23 08:48:25;;;;;;;4.50;2.60;;;;;;;21.53;55.16;97086.81;5070704;28;20285;-70
2021/08/23 08:50:51;;;;;;;4.83;2.80;;;;;;;21.81;54.86;97086.25;5069883;28;20183;-68
2021/08/23 08:53:17;;;;;;;5.10;2.73;;;;;;;22.01;54.77;97095.81;5070173;28;20456;-68
2021/08/23 08:55:43;;;;;;;5.30;2.87;;;;;;;22.29;54.59;97097.03;5070200;28;20954;-67
2021/08/23 08:58:09;;;;;;;4.40;2.70;;;;;;;22.67;52.99;97098.50;5046235;28;20256;-69
2021/08/23 09:00:37;;;;;;;3.23;2.50;;;;;;;22.31;54.29;97094.94;5065898;28;20175;-69
2021/08/23 09:03:04;;;;;;;5.23;2.40;;;;;;;22.48;53.97;97090.56;5070311;28;20464;-71
2021/08/23 09:05:38;;;;;;;3.60;2.73;;;;;;;23.06;52.02;97089.94;5069761;28;20579;-69
2021/08/23 09:08:04;;;;;;;4.83;2.30;;;;;;;23.19;51.47;97095.03;5069225;28;20444;-71
2021/08/23 09:10:31;;;;;;;3.23;2.50;;;;;;;22.74;51.73;97104.50;5070751;28;20436;-70
2021/08/23 09:13:01;;;;;;;3.40;2.47;;;;;;;22.68;52.04;97105.47;5068413;28;20480;-68
2021/08/23 09:15:26;;;;;;;3.27;2.50;;;;;;;21.91;54.36;97101.72;5070191;28;20421;-68
2021/08/23 09:18:06;;;;;;;6.87;2.43;;;;;;;21.75;55.59;97103.19;5071192;28;20447;-67
2021/08/23 09:20:33;;;;;;;4.23;2.70;;;;;;;21.67;55.48;97114.97;5046625;28;20181;-69
2021/08/23 09:23:08;;;;;;;3.53;2.60;;;;;;;21.69;55.34;97115.56;5070008;28;20448;-68
2021/08/23 09:25:34;;;;;;;4.53;3.30;;;;;;;21.37;56.28;97118.38;5070206;28;20469;-68
2021/08/23 09:28:04;;;;;;;5.00;2.73;;;;;;;20.96;57.65;97118.03;5070600;28;20440;-69
2021/08/23 09:30:30;;;;;;;3.60;2.60;;;;;;;21.12;57.83;97115.81;5048952;28;20682;-67
2021/08/23 09:32:58;;;;;;;7.10;3.00;;;;;;;21.10;58.72;97115.22;5070443;28;20417;-68
2021/08/23 09:35:37;;;;;;;4.13;2.93;;;;;;;21.26;58.25;97114.63;5069691;28;20186;-68
2021/08/23 09:38:09;;;;;;;4.90;2.87;;;;;;;21.09;58.10;97110.94;5068679;28;20892;-67
2021/08/23 09:40:35;;;;;;;4.90;2.87;;;;;;;21.49;56.71;97113.13;5052998;28;20511;-68
2021/08/23 09:43:11;;;;;;;4.73;2.80;;;;;;;22.15;54.82;97113.25;5070196;28;20556;-69
2021/08/23 09:45:47;;;;;;;4.47;2.70;;;;;;;21.63;55.09;97122.59;5069880;28;20423;-68
2021/08/23 09:48:13;;;;;;;4.10;2.73;;;;;;;21.44;56.58;97120.97;5069662;28;20440;-68
2021/08/23 09:50:41;;;;;;;4.77;2.90;;;;;;;22.57;53.30;97115.09;5066333;28;20429;-69
2021/08/23 09:53:09;;;;;;;6.93;2.63;;;;;;;22.89;52.01;97117.38;5070187;28;20413;-68
2021/08/23 09:55:36;;;;;;;2.93;2.50;;;;;;;23.09;51.29;97119.69;5069337;28;20425;-70
2021/08/23 09:58:02;;;;;;;3.63;2.63;;;;;;;22.74;52.57;97117.88;5069517;28;20487;-67
2021/08/23 10:00:28;;;;;;;4.77;2.60;;;;;;;23.33;50.97;97119.66;5066807;28;20840;-69
2021/08/23 10:02:54;;;;;;;6.20;3.00;;;;;;;23.39;50.51;97117.91;5070328;28;20572;-69
2021/08/23 10:05:20;;;;;;;3.90;2.30;;;;;;;23.01;51.30;97120.06;5052649;28;20257;-68
2021/08/23 10:07:46;;;;;;;3.40;2.13;;;;;;;23.36;50.44;97115.72;5063426;28;20533;-69
2021/08/23 10:10:12;;;;;;;4.10;2.50;;;;;;;23.37;50.67;97123.50;5067953;28;20252;-69
2021/08/23 10:12:39;;;;;;;4.23;2.40;;;;;;;23.36;50.98;97123.75;5069956;28;20432;-68
2021/08/23 10:15:05;;;;;;;3.17;2.40;;;;;;;22.46;52.84;97116.69;5069436;28;20452;-70
2021/08/23 10:17:36;;;;;;;6.23;3.20;;;;;;;22.94;51.64;97116.69;5069018;28;20445;-66
2021/08/23 10:20:03;;;;;;;9.43;2.90;;;;;;;23.27;50.81;97113.41;5061788;28;20830;-67
2021/08/23 10:22:29;;;;;;;3.93;2.57;;;;;;;22.97;50.38;97118.88;5067526;28;20478;-68
2021/08/23 10:24:55;;;;;;;3.10;2.17;;;;;;;22.88;51.38;97117.63;5067786;28;20877;-68
2021/08/23 10:27:22;;;;;;;4.77;2.60;;;;;;;22.86;50.87;97109.84;5068505;28;20182;-71
2021/08/23 10:29:48;;;;;;;3.33;2.80;;;;;;;22.91;50.85;97111.81;5072703;28;20182;-68
2021/08/23 10:32:14;;;;;;;4.03;2.10;;;;;;;22.52;51.64;97113.09;5069231;28;20435;-68
2021/08/23 10:34:40;;;;;;;2.57;2.20;;;;;;;22.57;52.12;97114.25;5072137;28;20424;-67
2021/08/23 10:37:34;;;;;;;3.40;2.60;;;;;;;22.63;51.50;97118.69;5074053;28;20198;-69
2021/08/23 10:40:01;;;;;;;3.93;2.10;;;;;;;23.55;49.43;97108.34;5028688;28;20202;-68
2021/08/23 10:42:40;;;;;;;3.60;3.00;;;;;;;23.60;50.68;97114.59;5051261;28;21002;-67
2021/08/23 10:45:15;;;;;;;5.10;3.67;;;;;;;22.86;54.94;97123.22;5050419;28;20867;-68
2021/08/23 10:47:42;;;;;;;5.40;3.33;;;;;;;23.10;54.44;97113.28;5034327;28;20449;-68
2021/08/23 10:50:19;;;;;;;5.20;3.60;;;;;;;22.21;58.45;97109.66;5049760;28;20519;-69
2021/08/23 10:52:45;;;;;;;3.67;3.37;;;;;;;22.44;57.39;97113.44;5045061;28;20422;-67
2021/08/23 10:55:25;;;;;;;5.50;3.47;;;;;;;23.12;55.82;97110.41;5017077;28;20431;-68
2021/08/23 10:58:04;;;;;;;4.27;2.73;;;;;;;23.14;55.92;97108.28;5050566;28;20241;-68
2021/08/23 11:00:40;;;;;;;3.33;2.90;;;;;;;22.98;56.01;97109.81;5027973;28;20459;-69
2021/08/23 11:03:06;;;;;;;4.00;3.30;;;;;;;23.00;55.58;97111.22;5044062;28;20468;-68
2021/08/23 11:05:34;;;;;;;4.10;3.30;;;;;;;22.31;58.15;97106.44;5049710;28;20509;-66
2021/08/23 11:08:03;;;;;;;4.90;3.23;;;;;;;22.41;58.05;97111.25;5022352;28;20542;-68
2021/08/23 11:10:30;;;;;;;4.90;3.00;;;;;;;22.18;58.54;97109.31;5046327;28;20543;-68
2021/08/23 11:13:10;;;;;;;3.20;2.90;;;;;;;21.88;59.83;97105.66;5029533;28;20512;-68
2021/08/23 11:15:35;;;;;;;3.60;3.30;;;;;;;22.48;58.32;97101.25;5039111;28;20429;-69
2021/08/23 11:18:05;;;;;;;3.93;2.83;;;;;;;22.58;57.66;97106.03;5072091;28;20455;-68
2021/08/23 11:20:52;;;;;;;4.57;3.80;;;;;;;21.38;60.87;97104.03;5056426;28;20182;-68
2021/08/23 11:23:22;;;;;;;3.57;3.23;;;;;;;20.63;63.00;97113.81;5072229;28;20534;-69
2021/08/23 11:25:50;;;;;;;3.20;2.90;;;;;;;20.89;62.97;97111.97;5073003;28;20798;-69
2021/08/23 11:28:20;;;;;;;5.00;3.37;;;;;;;20.76;64.64;97101.44;5055356;28;20462;-70
2021/08/23 11:30:48;;;;;;;4.23;3.33;;;;;;;20.70;64.84;97100.44;5069567;28;20427;-69
2021/08/23 11:33:24;;;;;;;4.20;3.80;;;;;;;20.75;64.75;97099.81;5071106;28;20417;-69